Dati Storici

Data ora Umidita' aria (%) Temperatura aria (°C) Rad globale (W/m²) Gonioanemometro (°) Tacoanemometro (m/s) Pioggia (mm)
22-06-2020 06:50 66.9 % 22.774 122.951 0.845 0 0
22-06-2020 06:40 68.6 % 22.605 315.552 0.95 0 0
22-06-2020 06:30 69.5 % 21.973 284.78 0.914 0 0
22-06-2020 06:20 69.7 % 21.97 164.765 0.616 0 0
22-06-2020 06:10 70.1 % 21.557 287.574 0.825 0 0
22-06-2020 06:00 70.7 % 21.596 220.912 -0.026 0 0
22-06-2020 05:50 71.9 % 21.466 279.972 -0.027 0 0
22-06-2020 05:40 73.8 % 21.112 96.704 -0.024 0 0
22-06-2020 05:30 76.5 % 20.43 288.012 0.542 0 0
22-06-2020 05:20 79.7 % 19.743 122.56 -0.008 0 0
22-06-2020 05:10 79.5 % 19.561 286.732 0.974 0 0
22-06-2020 05:00 82.4 % 19.299 246.305 -0.009 0 0
22-06-2020 04:50 82 % 19.142 191.915 0.237 0 0
22-06-2020 04:40 80.6 % 19.22 212.871 0.686 0 0
22-06-2020 04:30 78.9 % 19.405 213.987 -0.01 0 0
22-06-2020 04:20 77.6 % 19.556 30.83 -0.011 0 0
22-06-2020 04:10 76.2 % 19.683 225.737 -0.012 0 0
22-06-2020 04:00 75.3 % 19.917 275.966 0.364 0 0
22-06-2020 03:50 74.3 % 20.156 211.635 0.69 0 0
22-06-2020 03:40 74.3 % 20.235 196.857 0.246 0 0

I dati sono presentati in modo automatico a scopo informativo. In seguito a verifica i dati possono subire modifiche o essere invalidati e non riportati negli archivi definitivi.